sensor_id;sensor_type;location;lat;lon;timestamp;pressure;altitude;pressure_sealevel;temperature;humidity
39341;BME280;25059;52.132;21.062;2023-05-24T00:00:59;99968.47;;;26.61;34.66
39341;BME280;25059;52.132;21.062;2023-05-24T00:03:45;99964.28;;;26.50;34.79
39341;BME280;25059;52.132;21.062;2023-05-24T00:06:30;99956.88;;;26.52;34.90
39341;BME280;25059;52.132;21.062;2023-05-24T00:09:18;99962.78;;;26.48;34.85
39341;BME280;25059;52.132;21.062;2023-05-24T00:12:02;99954.50;;;26.57;34.76
39341;BME280;25059;52.132;21.062;2023-05-24T00:14:47;99949.81;;;26.43;34.98
39341;BME280;25059;52.132;21.062;2023-05-24T00:17:32;99949.44;;;26.54;34.77
39341;BME280;25059;52.132;21.062;2023-05-24T00:20:18;99950.13;;;26.48;34.74
39341;BME280;25059;52.132;21.062;2023-05-24T00:23:03;99951.81;;;26.49;34.89
39341;BME280;25059;52.132;21.062;2023-05-24T00:25:48;99935.97;;;26.30;35.12
39341;BME280;25059;52.132;21.062;2023-05-24T00:28:32;99953.69;;;26.41;34.89
39341;BME280;25059;52.132;21.062;2023-05-24T00:31:17;99941.91;;;26.42;34.73
39341;BME280;25059;52.132;21.062;2023-05-24T00:37:36;99939.88;;;26.35;34.99
39341;BME280;25059;52.132;21.062;2023-05-24T00:40:21;99935.31;;;26.28;34.85
39341;BME280;25059;52.132;21.062;2023-05-24T00:43:05;99943.41;;;26.28;34.98
39341;BME280;25059;52.132;21.062;2023-05-24T00:46:07;99945.94;;;26.46;35.13
39341;BME280;25059;52.132;21.062;2023-05-24T00:48:56;99941.72;;;26.35;35.14
39341;BME280;25059;52.132;21.062;2023-05-24T00:51:41;99942.56;;;26.27;34.91
39341;BME280;25059;52.132;21.062;2023-05-24T00:54:25;99934.66;;;26.18;35.11
39341;BME280;25059;52.132;21.062;2023-05-24T00:57:10;99928.09;;;26.12;35.24
39341;BME280;25059;52.132;21.062;2023-05-24T00:59:57;99935.31;;;26.28;35.02
39341;BME280;25059;52.132;21.062;2023-05-24T01:02:42;99941.53;;;26.28;35.18
39341;BME280;25059;52.132;21.062;2023-05-24T01:05:26;99944.25;;;26.20;35.17
39341;BME280;25059;52.132;21.062;2023-05-24T01:08:26;99935.81;;;26.48;34.74
39341;BME280;25059;52.132;21.062;2023-05-24T01:14:55;99934.44;;;26.52;34.61
39341;BME280;25059;52.132;21.062;2023-05-24T01:17:53;99938.69;;;26.30;34.86
39341;BME280;25059;52.132;21.062;2023-05-24T01:20:45;99931.47;;;26.06;35.01
39341;BME280;25059;52.132;21.062;2023-05-24T01:23:58;99939.19;;;26.25;34.90
39341;BME280;25059;52.132;21.062;2023-05-24T01:27:06;99939.53;;;26.30;34.69
39341;BME280;25059;52.132;21.062;2023-05-24T01:29:51;99950.50;;;26.13;35.12
39341;BME280;25059;52.132;21.062;2023-05-24T01:32:36;99941.75;;;26.02;34.85
39341;BME280;25059;52.132;21.062;2023-05-24T01:35:22;99946.63;;;25.99;35.06
39341;BME280;25059;52.132;21.062;2023-05-24T01:38:06;99952.69;;;26.01;35.25
39341;BME280;25059;52.132;21.062;2023-05-24T01:40:58;99956.72;;;26.13;35.33
39341;BME280;25059;52.132;21.062;2023-05-24T01:46:56;99938.69;;;26.05;35.08
39341;BME280;25059;52.132;21.062;2023-05-24T01:49:49;99939.03;;;26.02;35.49
39341;BME280;25059;52.132;21.062;2023-05-24T01:52:36;99942.75;;;25.93;35.62
39341;BME280;25059;52.132;21.062;2023-05-24T01:55:21;99948.47;;;25.90;35.69
39341;BME280;25059;52.132;21.062;2023-05-24T01:58:06;99949.16;;;25.84;35.68
39341;BME280;25059;52.132;21.062;2023-05-24T02:00:53;99936.47;;;25.60;35.81
39341;BME280;25059;52.132;21.062;2023-05-24T02:03:38;99945.09;;;25.72;35.62
39341;BME280;25059;52.132;21.062;2023-05-24T02:06:23;99944.44;;;25.70;35.78
39341;BME280;25059;52.132;21.062;2023-05-24T02:09:08;99948.59;;;25.64;35.74
39341;BME280;25059;52.132;21.062;2023-05-24T02:11:52;99950.59;;;25.62;35.76
39341;BME280;25059;52.132;21.062;2023-05-24T02:14:37;99949.59;;;25.63;35.40
39341;BME280;25059;52.132;21.062;2023-05-24T02:17:21;99956.66;;;25.56;35.80
39341;BME280;25059;52.132;21.062;2023-05-24T02:20:09;99952.28;;;25.55;35.92
39341;BME280;25059;52.132;21.062;2023-05-24T02:22:54;99946.69;;;25.40;35.94
39341;BME280;25059;52.132;21.062;2023-05-24T02:25:38;99957.16;;;25.52;35.74
39341;BME280;25059;52.132;21.062;2023-05-24T02:28:23;99952.63;;;25.52;36.09
39341;BME280;25059;52.132;21.062;2023-05-24T02:31:08;99946.56;;;25.58;35.53
39341;BME280;25059;52.132;21.062;2023-05-24T02:33:53;99950.75;;;25.53;35.54
39341;BME280;25059;52.132;21.062;2023-05-24T02:36:37;99949.06;;;25.52;35.59
39341;BME280;25059;52.132;21.062;2023-05-24T02:39:22;99941.50;;;25.55;35.01
39341;BME280;25059;52.132;21.062;2023-05-24T02:42:07;99939.31;;;25.51;35.24
39341;BME280;25059;52.132;21.062;2023-05-24T02:44:52;99953.13;;;25.64;34.89
39341;BME280;25059;52.132;21.062;2023-05-24T02:47:37;99952.16;;;25.65;35.24
39341;BME280;25059;52.132;21.062;2023-05-24T02:50:21;99953.97;;;25.64;35.30
39341;BME280;25059;52.132;21.062;2023-05-24T02:53:05;99953.19;;;25.72;34.76
39341;BME280;25059;52.132;21.062;2023-05-24T02:55:50;99946.72;;;25.49;35.32
39341;BME280;25059;52.132;21.062;2023-05-24T02:58:34;99958.69;;;25.62;35.07
39341;BME280;25059;52.132;21.062;2023-05-24T03:01:23;99951.81;;;25.68;35.00
39341;BME280;25059;52.132;21.062;2023-05-24T03:04:08;99959.25;;;25.82;34.98
39341;BME280;25059;52.132;21.062;2023-05-24T03:06:52;99950.31;;;25.82;34.74
39341;BME280;25059;52.132;21.062;2023-05-24T03:09:37;99963.28;;;26.02;34.52
39341;BME280;25059;52.132;21.062;2023-05-24T03:12:22;99961.09;;;26.14;34.54
39341;BME280;25059;52.132;21.062;2023-05-24T03:15:07;99970.38;;;25.95;34.55
39341;BME280;25059;52.132;21.062;2023-05-24T03:17:52;99965.47;;;25.99;34.16
39341;BME280;25059;52.132;21.062;2023-05-24T03:20:36;99966.00;;;26.11;34.22
39341;BME280;25059;52.132;21.062;2023-05-24T03:23:20;99965.31;;;26.33;34.12
39341;BME280;25059;52.132;21.062;2023-05-24T03:26:05;99964.41;;;26.65;33.53
39341;BME280;25059;52.132;21.062;2023-05-24T03:28:50;99955.84;;;26.61;33.20
39341;BME280;25059;52.132;21.062;2023-05-24T03:31:35;99973.22;;;26.51;33.91
39341;BME280;25059;52.132;21.062;2023-05-24T03:34:20;99968.84;;;26.42;33.87
39341;BME280;25059;52.132;21.062;2023-05-24T03:37:04;99969.16;;;26.63;33.70
39341;BME280;25059;52.132;21.062;2023-05-24T03:43:16;99977.66;;;26.91;33.02
39341;BME280;25059;52.132;21.062;2023-05-24T03:46:01;99974.13;;;26.98;33.01
39341;BME280;25059;52.132;21.062;2023-05-24T03:48:46;99980.00;;;26.94;32.86
39341;BME280;25059;52.132;21.062;2023-05-24T03:51:31;99976.13;;;27.05;32.72
39341;BME280;25059;52.132;21.062;2023-05-24T03:54:16;99980.34;;;27.07;32.60
39341;BME280;25059;52.132;21.062;2023-05-24T03:57:01;99967.47;;;27.17;32.43
39341;BME280;25059;52.132;21.062;2023-05-24T03:59:46;99982.91;;;27.31;32.56
39341;BME280;25059;52.132;21.062;2023-05-24T04:02:30;99987.91;;;27.43;32.50
39341;BME280;25059;52.132;21.062;2023-05-24T04:05:15;99995.50;;;27.47;32.44
39341;BME280;25059;52.132;21.062;2023-05-24T04:07:59;99999.16;;;27.23;32.45
39341;BME280;25059;52.132;21.062;2023-05-24T04:10:45;100003.94;;;27.05;32.63
39341;BME280;25059;52.132;21.062;2023-05-24T04:13:29;99993.84;;;26.91;32.84
39341;BME280;25059;52.132;21.062;2023-05-24T04:16:14;99998.09;;;26.85;33.20
39341;BME280;25059;52.132;21.062;2023-05-24T04:18:59;100008.09;;;26.60;33.62
39341;BME280;25059;52.132;21.062;2023-05-24T04:21:45;100005.75;;;26.49;34.00
39341;BME280;25059;52.132;21.062;2023-05-24T04:24:30;100005.25;;;26.54;33.79
39341;BME280;25059;52.132;21.062;2023-05-24T04:27:15;100010.13;;;26.58;33.91
39341;BME280;25059;52.132;21.062;2023-05-24T04:30:01;100013.97;;;26.64;33.72
39341;BME280;25059;52.132;21.062;2023-05-24T04:32:46;100009.41;;;26.73;33.74
39341;BME280;25059;52.132;21.062;2023-05-24T04:35:31;100014.63;;;26.82;33.31
39341;BME280;25059;52.132;21.062;2023-05-24T04:38:16;100015.28;;;26.84;33.54
39341;BME280;25059;52.132;21.062;2023-05-24T04:41:02;100013.75;;;26.98;33.30
39341;BME280;25059;52.132;21.062;2023-05-24T04:43:47;100019.13;;;27.06;33.75
39341;BME280;25059;52.132;21.062;2023-05-24T04:46:31;100016.09;;;26.93;33.78
39341;BME280;25059;52.132;21.062;2023-05-24T04:49:19;100018.81;;;26.93;33.85
39341;BME280;25059;52.132;21.062;2023-05-24T04:52:04;100027.25;;;26.90;33.73
39341;BME280;25059;52.132;21.062;2023-05-24T04:54:48;100027.41;;;27.05;33.92
39341;BME280;25059;52.132;21.062;2023-05-24T04:57:34;100027.56;;;27.03;34.08
39341;BME280;25059;52.132;21.062;2023-05-24T05:00:19;100030.03;;;27.21;33.62
39341;BME280;25059;52.132;21.062;2023-05-24T05:03:05;100040.44;;;26.77;34.10
39341;BME280;25059;52.132;21.062;2023-05-24T05:05:50;100036.38;;;26.73;33.89
39341;BME280;25059;52.132;21.062;2023-05-24T05:08:34;100028.41;;;26.95;34.12
39341;BME280;25059;52.132;21.062;2023-05-24T05:11:18;100034.66;;;26.88;34.02
39341;BME280;25059;52.132;21.062;2023-05-24T05:14:04;100042.94;;;27.02;34.10
39341;BME280;25059;52.132;21.062;2023-05-24T05:16:49;100042.06;;;27.10;34.14
39341;BME280;25059;52.132;21.062;2023-05-24T05:19:33;100048.63;;;27.16;33.82
39341;BME280;25059;52.132;21.062;2023-05-24T05:22:19;100053.81;;;27.25;33.76
39341;BME280;25059;52.132;21.062;2023-05-24T05:25:04;100051.75;;;27.75;33.29
39341;BME280;25059;52.132;21.062;2023-05-24T05:27:48;100048.09;;;27.59;33.21
39341;BME280;25059;52.132;21.062;2023-05-24T05:30:33;100049.19;;;27.81;32.95
39341;BME280;25059;52.132;21.062;2023-05-24T05:33:21;100056.53;;;27.17;33.94
39341;BME280;25059;52.132;21.062;2023-05-24T05:36:06;100039.38;;;27.10;33.54
39341;BME280;25059;52.132;21.062;2023-05-24T05:38:51;100051.56;;;27.37;33.64
39341;BME280;25059;52.132;21.062;2023-05-24T05:41:39;100049.94;;;27.28;33.76
39341;BME280;25059;52.132;21.062;2023-05-24T05:44:25;100040.53;;;27.55;33.49
39341;BME280;25059;52.132;21.062;2023-05-24T05:47:10;100056.59;;;27.48;33.36
39341;BME280;25059;52.132;21.062;2023-05-24T05:49:54;100058.34;;;27.33;33.90
39341;BME280;25059;52.132;21.062;2023-05-24T05:52:39;100061.56;;;27.98;33.01
39341;BME280;25059;52.132;21.062;2023-05-24T05:55:24;100063.78;;;27.95;33.07
39341;BME280;25059;52.132;21.062;2023-05-24T05:58:09;100067.34;;;28.18;33.00
39341;BME280;25059;52.132;21.062;2023-05-24T06:00:53;100061.69;;;27.82;33.27
39341;BME280;25059;52.132;21.062;2023-05-24T06:03:38;100065.28;;;27.97;33.15
39341;BME280;25059;52.132;21.062;2023-05-24T06:06:25;100076.78;;;27.99;33.05
39341;BME280;25059;52.132;21.062;2023-05-24T06:09:22;100076.84;;;28.14;32.97
39341;BME280;25059;52.132;21.062;2023-05-24T06:12:09;100078.03;;;27.89;33.35
39341;BME280;25059;52.132;21.062;2023-05-24T06:14:53;100077.56;;;28.08;32.79
39341;BME280;25059;52.132;21.062;2023-05-24T06:17:44;100087.06;;;28.04;33.08
39341;BME280;25059;52.132;21.062;2023-05-24T06:20:31;100082.56;;;27.57;33.81
39341;BME280;25059;52.132;21.062;2023-05-24T06:23:16;100078.31;;;27.94;33.09
39341;BME280;25059;52.132;21.062;2023-05-24T06:26:03;100089.09;;;28.02;33.48
39341;BME280;25059;52.132;21.062;2023-05-24T06:28:47;100095.41;;;28.63;32.49
39341;BME280;25059;52.132;21.062;2023-05-24T06:31:32;100101.94;;;28.54;32.37
39341;BME280;25059;52.132;21.062;2023-05-24T06:34:20;100111.84;;;28.61;32.71
39341;BME280;25059;52.132;21.062;2023-05-24T06:37:09;100105.31;;;28.33;32.67
39341;BME280;25059;52.132;21.062;2023-05-24T06:43:19;100128.78;;;29.31;31.75
39341;BME280;25059;52.132;21.062;2023-05-24T06:46:05;100106.94;;;29.76;31.50
39341;BME280;25059;52.132;21.062;2023-05-24T06:48:50;100121.59;;;29.82;31.30
39341;BME280;25059;52.132;21.062;2023-05-24T06:51:36;100121.22;;;29.85;31.45
39341;BME280;25059;52.132;21.062;2023-05-24T06:54:24;100126.81;;;30.34;30.78
39341;BME280;25059;52.132;21.062;2023-05-24T06:57:10;100123.81;;;30.29;30.67
39341;BME280;25059;52.132;21.062;2023-05-24T06:59:54;100128.81;;;30.47;30.54
39341;BME280;25059;52.132;21.062;2023-05-24T07:02:40;100123.56;;;30.88;30.04
39341;BME280;25059;52.132;21.062;2023-05-24T07:05:26;100124.09;;;30.34;29.85
39341;BME280;25059;52.132;21.062;2023-05-24T07:08:15;100128.41;;;31.55;29.19
39341;BME280;25059;52.132;21.062;2023-05-24T07:10:59;100126.19;;;31.03;28.67
39341;BME280;25059;52.132;21.062;2023-05-24T07:13:45;100134.53;;;31.29;28.25
39341;BME280;25059;52.132;21.062;2023-05-24T07:16:30;100132.75;;;31.43;27.92
39341;BME280;25059;52.132;21.062;2023-05-24T07:19:15;100139.00;;;30.88;28.27
39341;BME280;25059;52.132;21.062;2023-05-24T07:22:00;100129.16;;;31.36;28.30
39341;BME280;25059;52.132;21.062;2023-05-24T07:24:45;100138.28;;;31.28;27.89
39341;BME280;25059;52.132;21.062;2023-05-24T07:27:30;100150.84;;;29.72;28.86
39341;BME280;25059;52.132;21.062;2023-05-24T07:30:15;100149.53;;;30.54;29.61
39341;BME280;25059;52.132;21.062;2023-05-24T07:33:00;100148.97;;;30.80;29.54
39341;BME280;25059;52.132;21.062;2023-05-24T07:35:45;100161.25;;;31.54;28.55
39341;BME280;25059;52.132;21.062;2023-05-24T07:38:34;100160.81;;;32.39;28.35
39341;BME280;25059;52.132;21.062;2023-05-24T07:41:25;100165.22;;;32.53;27.13
39341;BME280;25059;52.132;21.062;2023-05-24T07:44:10;100166.91;;;31.93;27.83
39341;BME280;25059;52.132;21.062;2023-05-24T07:46:55;100158.38;;;33.03;27.03
39341;BME280;25059;52.132;21.062;2023-05-24T07:49:40;100163.38;;;32.73;27.25
39341;BME280;25059;52.132;21.062;2023-05-24T07:52:25;100162.56;;;32.86;27.38
39341;BME280;25059;52.132;21.062;2023-05-24T07:55:10;100164.59;;;33.57;26.87
39341;BME280;25059;52.132;21.062;2023-05-24T07:57:56;100174.31;;;33.06;26.93
39341;BME280;25059;52.132;21.062;2023-05-24T08:00:49;100172.63;;;32.99;26.62
39341;BME280;25059;52.132;21.062;2023-05-24T08:03:35;100166.34;;;32.85;27.64
39341;BME280;25059;52.132;21.062;2023-05-24T08:06:21;100180.34;;;33.61;26.74
39341;BME280;25059;52.132;21.062;2023-05-24T08:09:07;100178.41;;;33.82;26.81
39341;BME280;25059;52.132;21.062;2023-05-24T08:11:52;100169.22;;;33.56;27.07
39341;BME280;25059;52.132;21.062;2023-05-24T08:14:39;100185.47;;;34.02;26.33
39341;BME280;25059;52.132;21.062;2023-05-24T08:17:25;100191.84;;;34.66;25.79
39341;BME280;25059;52.132;21.062;2023-05-24T08:20:10;100189.84;;;34.55;25.86
39341;BME280;25059;52.132;21.062;2023-05-24T08:22:59;100194.22;;;34.94;25.45
39341;BME280;25059;52.132;21.062;2023-05-24T08:25:45;100196.03;;;35.50;25.18
39341;BME280;25059;52.132;21.062;2023-05-24T08:28:29;100195.09;;;35.81;25.04
39341;BME280;25059;52.132;21.062;2023-05-24T08:31:14;100199.41;;;35.70;24.71
39341;BME280;25059;52.132;21.062;2023-05-24T08:34:00;100204.63;;;36.27;24.04
39341;BME280;25059;52.132;21.062;2023-05-24T08:36:46;100206.16;;;36.22;24.15
39341;BME280;25059;52.132;21.062;2023-05-24T08:39:30;100205.72;;;35.71;25.05
39341;BME280;25059;52.132;21.062;2023-05-24T08:42:22;100197.72;;;35.51;24.25
39341;BME280;25059;52.132;21.062;2023-05-24T08:45:11;100208.16;;;35.97;24.93
39341;BME280;25059;52.132;21.062;2023-05-24T08:47:56;100199.75;;;36.47;23.90
39341;BME280;25059;52.132;21.062;2023-05-24T08:50:42;100209.44;;;36.61;23.67
39341;BME280;25059;52.132;21.062;2023-05-24T08:53:27;100190.63;;;37.06;23.44
39341;BME280;25059;52.132;21.062;2023-05-24T08:56:17;100208.06;;;37.59;23.67
39341;BME280;25059;52.132;21.062;2023-05-24T08:59:02;100197.44;;;37.74;23.56
39341;BME280;25059;52.132;21.062;2023-05-24T09:01:52;100223.84;;;38.55;22.48
39341;BME280;25059;52.132;21.062;2023-05-24T09:04:45;100218.41;;;38.43;22.52
39341;BME280;25059;52.132;21.062;2023-05-24T09:07:31;100215.34;;;38.85;21.97
39341;BME280;25059;52.132;21.062;2023-05-24T09:10:18;100208.88;;;39.80;21.27
39341;BME280;25059;52.132;21.062;2023-05-24T09:13:05;100217.53;;;39.17;21.77
39341;BME280;25059;52.132;21.062;2023-05-24T09:15:51;100218.09;;;39.69;21.44
39341;BME280;25059;52.132;21.062;2023-05-24T09:18:36;100230.59;;;38.93;21.69
39341;BME280;25059;52.132;21.062;2023-05-24T09:21:20;100228.13;;;39.41;21.45
39341;BME280;25059;52.132;21.062;2023-05-24T09:24:07;100230.66;;;38.53;22.71
39341;BME280;25059;52.132;21.062;2023-05-24T09:26:52;100236.56;;;37.93;22.94
39341;BME280;25059;52.132;21.062;2023-05-24T09:29:37;100236.06;;;38.07;22.71
39341;BME280;25059;52.132;21.062;2023-05-24T09:32:25;100242.31;;;38.71;22.50
39341;BME280;25059;52.132;21.062;2023-05-24T09:35:11;100238.84;;;38.93;22.27
39341;BME280;25059;52.132;21.062;2023-05-24T09:37:57;100240.06;;;38.68;22.49
39341;BME280;25059;52.132;21.062;2023-05-24T09:44:23;100245.34;;;40.09;20.08
39341;BME280;25059;52.132;21.062;2023-05-24T09:47:08;100246.56;;;39.24;21.25
39341;BME280;25059;52.132;21.062;2023-05-24T09:53:43;100248.56;;;38.27;21.24
39341;BME280;25059;52.132;21.062;2023-05-24T09:56:36;100253.63;;;39.03;22.47
39341;BME280;25059;52.132;21.062;2023-05-24T09:59:27;100236.03;;;40.59;20.29
39341;BME280;25059;52.132;21.062;2023-05-24T10:02:16;100252.06;;;40.62;20.01
39341;BME280;25059;52.132;21.062;2023-05-24T10:05:04;100245.19;;;40.38;21.07
39341;BME280;25059;52.132;21.062;2023-05-24T10:07:54;100255.09;;;40.87;21.01
39341;BME280;25059;52.132;21.062;2023-05-24T10:10:40;100261.91;;;37.71;23.64
39341;BME280;25059;52.132;21.062;2023-05-24T10:13:28;100240.03;;;36.28;24.87
39341;BME280;25059;52.132;21.062;2023-05-24T10:16:20;100252.34;;;36.01;25.63
39341;BME280;25059;52.132;21.062;2023-05-24T10:19:05;100258.84;;;35.38;26.29
39341;BME280;25059;52.132;21.062;2023-05-24T10:21:57;100269.00;;;35.00;26.96
39341;BME280;25059;52.132;21.062;2023-05-24T10:24:49;100256.06;;;35.13;26.65
39341;BME280;25059;52.132;21.062;2023-05-24T10:27:34;100279.06;;;34.67;26.78
39341;BME280;25059;52.132;21.062;2023-05-24T10:30:35;100276.44;;;34.48;27.50
39341;BME280;25059;52.132;21.062;2023-05-24T10:33:22;100267.25;;;34.22;27.58
39341;BME280;25059;52.132;21.062;2023-05-24T10:36:09;100265.00;;;34.06;27.50
39341;BME280;25059;52.132;21.062;2023-05-24T10:38:58;100268.56;;;34.13;27.73
39341;BME280;25059;52.132;21.062;2023-05-24T10:45:36;100267.78;;;36.80;24.59
39341;BME280;25059;52.132;21.062;2023-05-24T10:48:30;100263.63;;;36.77;24.14
39341;BME280;25059;52.132;21.062;2023-05-24T10:51:34;100275.63;;;36.28;24.35
39341;BME280;25059;52.132;21.062;2023-05-24T10:54:24;100269.28;;;37.59;23.69
39341;BME280;25059;52.132;21.062;2023-05-24T10:57:10;100280.41;;;39.25;22.08
39341;BME280;25059;52.132;21.062;2023-05-24T10:59:56;100274.16;;;39.63;21.88
39341;BME280;25059;52.132;21.062;2023-05-24T11:02:41;100273.78;;;40.80;20.72
39341;BME280;25059;52.132;21.062;2023-05-24T11:05:49;100281.19;;;41.34;19.94
39341;BME280;25059;52.132;21.062;2023-05-24T11:08:40;100281.03;;;40.64;20.87
39341;BME280;25059;52.132;21.062;2023-05-24T11:11:27;100289.22;;;41.72;20.05
39341;BME280;25059;52.132;21.062;2023-05-24T11:14:16;100285.34;;;41.36;19.83
39341;BME280;25059;52.132;21.062;2023-05-24T11:17:02;100282.91;;;41.13;20.45
39341;BME280;25059;52.132;21.062;2023-05-24T11:19:50;100283.00;;;41.92;19.52
39341;BME280;25059;52.132;21.062;2023-05-24T11:22:36;100294.25;;;40.62;20.88
39341;BME280;25059;52.132;21.062;2023-05-24T11:25:25;100289.50;;;40.80;20.94
39341;BME280;25059;52.132;21.062;2023-05-24T11:28:10;100288.00;;;41.58;20.28
39341;BME280;25059;52.132;21.062;2023-05-24T11:30:56;100280.72;;;42.36;19.04
39341;BME280;25059;52.132;21.062;2023-05-24T11:33:41;100290.81;;;42.78;18.69
39341;BME280;25059;52.132;21.062;2023-05-24T11:36:26;100294.31;;;44.36;17.97
39341;BME280;25059;52.132;21.062;2023-05-24T11:39:14;100286.75;;;43.46;18.32
39341;BME280;25059;52.132;21.062;2023-05-24T11:42:05;100281.16;;;44.62;17.60
39341;BME280;25059;52.132;21.062;2023-05-24T11:44:55;100281.72;;;42.10;19.38
39341;BME280;25059;52.132;21.062;2023-05-24T11:47:40;100286.31;;;40.44;20.43
39341;BME280;25059;52.132;21.062;2023-05-24T11:50:25;100286.41;;;42.77;19.52
39341;BME280;25059;52.132;21.062;2023-05-24T11:53:12;100271.72;;;43.98;17.97
39341;BME280;25059;52.132;21.062;2023-05-24T11:55:57;100278.59;;;45.49;17.01
39341;BME280;25059;52.132;21.062;2023-05-24T11:58:47;100286.63;;;45.79;16.63
39341;BME280;25059;52.132;21.062;2023-05-24T12:01:32;100288.00;;;45.53;17.09
39341;BME280;25059;52.132;21.062;2023-05-24T12:04:17;100278.19;;;44.48;17.39
39341;BME280;25059;52.132;21.062;2023-05-24T12:07:02;100281.72;;;43.89;17.99
39341;BME280;25059;52.132;21.062;2023-05-24T12:09:47;100283.44;;;45.91;16.52
39341;BME280;25059;52.132;21.062;2023-05-24T12:12:33;100286.34;;;48.01;15.05
39341;BME280;25059;52.132;21.062;2023-05-24T12:15:17;100272.91;;;49.47;14.22
39341;BME280;25059;52.132;21.062;2023-05-24T12:18:02;100270.88;;;49.17;14.29
39341;BME280;25059;52.132;21.062;2023-05-24T12:20:48;100279.22;;;48.22;14.68
39341;BME280;25059;52.132;21.062;2023-05-24T12:23:34;100288.13;;;49.64;14.09
39341;BME280;25059;52.132;21.062;2023-05-24T12:26:20;100280.13;;;52.04;13.48
39341;BME280;25059;52.132;21.062;2023-05-24T12:29:05;100275.78;;;51.13;12.94
39341;BME280;25059;52.132;21.062;2023-05-24T12:31:51;100276.88;;;51.47;13.44
39341;BME280;25059;52.132;21.062;2023-05-24T12:34:37;100269.19;;;50.66;13.16
39341;BME280;25059;52.132;21.062;2023-05-24T12:37:23;100276.78;;;51.73;12.46
39341;BME280;25059;52.132;21.062;2023-05-24T12:40:19;100278.81;;;51.55;12.57
39341;BME280;25059;52.132;21.062;2023-05-24T12:43:05;100270.13;;;53.19;12.16
39341;BME280;25059;52.132;21.062;2023-05-24T12:45:49;100276.97;;;54.12;11.84
39341;BME280;25059;52.132;21.062;2023-05-24T12:48:35;100277.84;;;53.10;12.16
39341;BME280;25059;52.132;21.062;2023-05-24T12:51:19;100270.66;;;49.58;13.74
39341;BME280;25059;52.132;21.062;2023-05-24T12:54:05;100266.34;;;46.26;15.87
39341;BME280;25059;52.132;21.062;2023-05-24T12:56:51;100281.81;;;45.32;16.21
39341;BME280;25059;52.132;21.062;2023-05-24T12:59:37;100268.84;;;44.78;16.74
39341;BME280;25059;52.132;21.062;2023-05-24T13:02:23;100260.19;;;44.40;16.94
39341;BME280;25059;52.132;21.062;2023-05-24T13:05:08;100276.25;;;41.36;18.06
39341;BME280;25059;52.132;21.062;2023-05-24T13:07:54;100274.59;;;41.08;18.63
39341;BME280;25059;52.132;21.062;2023-05-24T13:10:41;100275.16;;;40.56;18.80
39341;BME280;25059;52.132;21.062;2023-05-24T13:13:26;100272.25;;;39.63;19.49
39341;BME280;25059;52.132;21.062;2023-05-24T13:16:15;100269.03;;;37.49;20.29
39341;BME280;25059;52.132;21.062;2023-05-24T13:19:00;100274.81;;;36.76;21.10
39341;BME280;25059;52.132;21.062;2023-05-24T13:21:45;100276.41;;;37.25;21.44
39341;BME280;25059;52.132;21.062;2023-05-24T13:24:29;100267.88;;;37.03;21.66
39341;BME280;25059;52.132;21.062;2023-05-24T13:27:14;100269.25;;;36.64;22.38
39341;BME280;25059;52.132;21.062;2023-05-24T13:29:58;100264.59;;;36.83;22.63
39341;BME280;25059;52.132;21.062;2023-05-24T13:32:45;100266.03;;;36.19;24.16
39341;BME280;25059;52.132;21.062;2023-05-24T13:35:32;100267.41;;;36.28;23.89
39341;BME280;25059;52.132;21.062;2023-05-24T13:38:17;100269.13;;;36.59;23.88
39341;BME280;25059;52.132;21.062;2023-05-24T13:41:02;100257.19;;;36.83;23.77
39341;BME280;25059;52.132;21.062;2023-05-24T13:43:47;100253.75;;;37.53;22.44
39341;BME280;25059;52.132;21.062;2023-05-24T13:46:32;100267.09;;;38.08;22.28
39341;BME280;25059;52.132;21.062;2023-05-24T13:49:17;100268.72;;;39.18;21.28
39341;BME280;25059;52.132;21.062;2023-05-24T13:52:01;100272.66;;;39.72;20.37
39341;BME280;25059;52.132;21.062;2023-05-24T13:54:47;100265.72;;;40.30;20.18
39341;BME280;25059;52.132;21.062;2023-05-24T13:57:32;100259.09;;;39.87;19.22
39341;BME280;25059;52.132;21.062;2023-05-24T14:00:17;100273.88;;;38.69;19.86
39341;BME280;25059;52.132;21.062;2023-05-24T14:03:02;100264.41;;;38.76;20.01
39341;BME280;25059;52.132;21.062;2023-05-24T14:05:48;100277.81;;;38.73;19.90
39341;BME280;25059;52.132;21.062;2023-05-24T14:08:33;100275.75;;;38.80;20.07
39341;BME280;25059;52.132;21.062;2023-05-24T14:11:18;100275.84;;;37.93;21.21
39341;BME280;25059;52.132;21.062;2023-05-24T14:14:03;100272.03;;;38.46;20.87
39341;BME280;25059;52.132;21.062;2023-05-24T14:16:48;100277.31;;;38.36;21.91
39341;BME280;25059;52.132;21.062;2023-05-24T14:19:34;100272.38;;;38.61;22.21
39341;BME280;25059;52.132;21.062;2023-05-24T14:22:19;100283.56;;;39.33;21.50
39341;BME280;25059;52.132;21.062;2023-05-24T14:25:06;100282.63;;;41.09;20.24
39341;BME280;25059;52.132;21.062;2023-05-24T14:27:51;100276.44;;;42.03;18.91
39341;BME280;25059;52.132;21.062;2023-05-24T14:30:35;100277.53;;;41.60;19.08
39341;BME280;25059;52.132;21.062;2023-05-24T14:33:22;100280.66;;;40.56;19.67
39341;BME280;25059;52.132;21.062;2023-05-24T14:36:07;100295.31;;;39.12;21.12
39341;BME280;25059;52.132;21.062;2023-05-24T14:38:52;100293.38;;;38.67;20.32
39341;BME280;25059;52.132;21.062;2023-05-24T14:41:36;100286.56;;;38.58;21.10
39341;BME280;25059;52.132;21.062;2023-05-24T14:44:21;100291.66;;;38.38;21.10
39341;BME280;25059;52.132;21.062;2023-05-24T14:47:06;100294.34;;;37.98;21.19
39341;BME280;25059;52.132;21.062;2023-05-24T14:49:52;100292.44;;;37.10;21.71